Time;durP1;ratioP1;P1;durP2;ratioP2;P2;SDS_P1;SDS_P2;PMS_P1;PMS_P2;Temp;Humidity;BMP_temperature;BMP_pressure;BME280_temperature;BME280_humidity;BME280_pressure;Samples;Min_cycle;Max_cycle;Signal;HPM_P1;HPM_P2
2021/10/05 00:00:38;;;;;;;3.20;1.15;;;14.10;99.90;;;;;;5052078;28;20202;-84
2021/10/05 00:03:05;;;;;;;8.60;0.93;;;14.00;99.90;;;;;;5052149;28;20635;-84
2021/10/05 00:05:31;;;;;;;1.55;0.80;;;14.00;99.90;;;;;;5052253;28;20163;-85
2021/10/05 00:07:57;;;;;;;3.65;1.55;;;14.10;99.90;;;;;;5052195;28;20164;-84
2021/10/05 00:10:22;;;;;;;5.32;1.20;;;14.10;99.90;;;;;;5052108;28;20175;-83
2021/10/05 00:12:48;;;;;;;3.45;1.20;;;14.10;99.90;;;;;;5050704;28;20599;-85
2021/10/05 00:15:14;;;;;;;1.08;0.85;;;14.10;99.90;;;;;;5053437;28;20174;-84
2021/10/05 00:17:40;;;;;;;3.22;1.02;;;14.10;99.90;;;;;;5056023;28;20167;-84
2021/10/05 00:20:07;;;;;;;2.33;1.13;;;14.00;99.90;;;;;;5055969;28;20272;-84
2021/10/05 00:22:33;;;;;;;3.47;1.23;;;14.10;99.90;;;;;;5056034;28;20164;-85
2021/10/05 00:24:58;;;;;;;2.70;1.00;;;14.00;99.90;;;;;;5056135;28;20232;-85
2021/10/05 00:27:24;;;;;;;4.88;1.30;;;14.00;99.90;;;;;;5056799;28;20175;-83
2021/10/05 00:29:49;;;;;;;1.00;0.70;;;14.00;99.90;;;;;;5055871;28;20211;-85
2021/10/05 00:32:15;;;;;;;4.75;1.10;;;14.00;99.90;;;;;;5055833;28;20246;-85
2021/10/05 00:34:41;;;;;;;1.80;0.80;;;14.10;99.90;;;;;;5055877;28;20176;-85
2021/10/05 00:37:06;;;;;;;0.82;0.55;;;14.20;99.90;;;;;;5054536;28;20178;-84
2021/10/05 00:39:32;;;;;;;2.00;0.80;;;14.20;99.90;;;;;;5055508;28;20686;-86
2021/10/05 00:41:58;;;;;;;3.75;1.00;;;14.00;99.90;;;;;;5055295;28;20257;-84
2021/10/05 00:44:35;;;;;;;2.85;0.80;;;13.90;99.90;;;;;;5055791;28;20171;-84
2021/10/05 00:47:11;;;;;;;1.20;0.85;;;13.90;99.90;;;;;;5055728;28;20198;-84
2021/10/05 00:49:39;;;;;;;2.17;1.10;;;13.90;99.90;;;;;;5055343;28;20231;-84
2021/10/05 00:52:06;;;;;;;0.75;0.60;;;13.80;99.90;;;;;;5055664;28;20206;-84
2021/10/05 00:54:33;;;;;;;3.13;0.75;;;13.90;99.90;;;;;;5055347;28;20228;-84
2021/10/05 00:56:59;;;;;;;0.80;0.68;;;14.00;99.90;;;;;;5055642;28;20252;-85
2021/10/05 00:59:25;;;;;;;4.78;0.73;;;14.00;99.90;;;;;;5055315;28;20757;-85
2021/10/05 01:01:51;;;;;;;1.95;0.85;;;14.00;99.90;;;;;;5055283;28;20164;-84
2021/10/05 01:04:17;;;;;;;1.15;0.75;;;14.00;99.90;;;;;;5055255;28;20167;-85
2021/10/05 01:06:47;;;;;;;2.92;0.75;;;13.90;99.90;;;;;;5055002;28;20186;-84
2021/10/05 01:09:13;;;;;;;3.90;0.70;;;14.00;99.90;;;;;;5055151;28;20195;-84
2021/10/05 01:11:39;;;;;;;0.95;0.80;;;14.10;99.90;;;;;;5055144;28;20178;-84
2021/10/05 01:14:05;;;;;;;1.23;0.73;;;14.00;99.90;;;;;;5055083;28;20171;-84
2021/10/05 01:16:30;;;;;;;2.58;0.60;;;14.00;99.90;;;;;;5054976;28;20171;-84
2021/10/05 01:18:56;;;;;;;4.53;0.80;;;13.80;99.90;;;;;;5054280;28;20696;-84
2021/10/05 01:21:21;;;;;;;4.63;0.70;;;13.80;99.90;;;;;;5054629;28;20168;-84
2021/10/05 01:23:47;;;;;;;2.50;0.63;;;14.00;99.90;;;;;;5054924;28;20243;-85
2021/10/05 01:26:13;;;;;;;2.95;0.90;;;14.00;99.90;;;;;;5054477;28;20175;-84
2021/10/05 01:28:38;;;;;;;3.45;0.77;;;14.10;99.90;;;;;;5053989;28;20167;-84
2021/10/05 01:31:04;;;;;;;6.03;0.52;;;14.00;99.90;;;;;;5054609;28;20181;-85
2021/10/05 01:33:30;;;;;;;5.03;0.70;;;14.00;99.90;;;;;;5054842;28;20182;-85
2021/10/05 01:35:56;;;;;;;1.42;0.68;;;14.00;99.90;;;;;;5054813;28;20221;-84
2021/10/05 01:38:22;;;;;;;5.78;0.90;;;14.10;99.90;;;;;;5054535;28;20650;-82
2021/10/05 01:40:48;;;;;;;6.28;0.90;;;14.20;99.90;;;;;;5054466;28;20210;-85
2021/10/05 01:43:14;;;;;;;3.55;0.90;;;14.00;99.90;;;;;;5054601;28;20175;-84
2021/10/05 01:45:40;;;;;;;1.70;0.68;;;13.90;99.90;;;;;;5054485;28;20171;-84
2021/10/05 01:48:07;;;;;;;2.95;1.02;;;13.80;99.90;;;;;;5054444;28;20253;-85
2021/10/05 01:50:34;;;;;;;3.03;0.93;;;13.90;99.90;;;;;;5054283;28;20183;-83
2021/10/05 01:53:00;;;;;;;2.00;1.10;;;13.90;99.90;;;;;;5053848;28;20187;-85
2021/10/05 01:55:25;;;;;;;2.05;0.90;;;13.90;99.90;;;;;;5054179;28;20164;-84
2021/10/05 01:57:51;;;;;;;1.63;0.80;;;14.00;99.90;;;;;;5054069;28;20160;-84
2021/10/05 02:00:17;;;;;;;2.85;0.98;;;13.90;99.90;;;;;;5053985;28;20240;-85
2021/10/05 02:02:43;;;;;;;4.50;1.67;;;13.80;99.90;;;;;;5053866;28;20173;-84
2021/10/05 02:05:09;;;;;;;4.00;1.00;;;13.70;99.90;;;;;;5053969;28;20167;-84
2021/10/05 02:07:36;;;;;;;3.42;1.00;;;13.70;99.90;;;;;;5053777;28;20206;-83
2021/10/05 02:10:04;;;;;;;4.22;0.80;;;13.80;99.90;;;;;;5053887;28;20237;-85
2021/10/05 02:12:29;;;;;;;4.72;1.05;;;13.80;99.90;;;;;;5054037;28;20160;-84
2021/10/05 02:14:55;;;;;;;2.35;0.80;;;13.70;99.90;;;;;;5054066;28;20171;-86
2021/10/05 02:17:21;;;;;;;2.22;1.00;;;13.60;99.90;;;;;;5053783;28;20167;-84
2021/10/05 02:19:46;;;;;;;2.75;1.00;;;13.60;99.90;;;;;;5053593;28;20675;-85
2021/10/05 02:22:12;;;;;;;2.08;0.95;;;13.70;99.90;;;;;;5052766;28;20167;-83
2021/10/05 02:27:07;;;;;;;1.98;0.73;;;13.50;99.90;;;;;;5054043;28;20171;-85
2021/10/05 02:29:36;;;;;;;2.45;0.70;;;13.60;99.90;;;;;;5052700;28;20191;-84
2021/10/05 02:32:04;;;;;;;4.47;1.23;;;13.50;99.90;;;;;;5053822;28;20183;-83
2021/10/05 02:34:29;;;;;;;1.77;0.80;;;13.50;99.90;;;;;;5053383;28;20171;-83
2021/10/05 02:36:55;;;;;;;1.88;0.70;;;13.50;99.90;;;;;;5052143;28;20171;-85
2021/10/05 02:39:20;;;;;;;3.90;0.93;;;13.40;99.90;;;;;;5052106;28;20209;-84
2021/10/05 02:41:47;;;;;;;3.80;0.95;;;13.40;99.90;;;;;;5053173;28;20704;-84
2021/10/05 02:44:13;;;;;;;2.35;1.10;;;13.40;99.90;;;;;;5053809;28;20175;-82
2021/10/05 02:46:39;;;;;;;13.25;1.10;;;13.40;99.90;;;;;;5053417;28;20216;-85
2021/10/05 02:49:05;;;;;;;5.50;1.08;;;13.30;99.90;;;;;;5053140;28;20282;-84
2021/10/05 02:51:31;;;;;;;2.00;1.20;;;13.20;99.90;;;;;;5053234;28;20163;-85
2021/10/05 02:53:57;;;;;;;5.07;1.10;;;13.30;99.90;;;;;;5053004;28;20627;-85
2021/10/05 02:56:23;;;;;;;3.75;0.80;;;13.30;99.90;;;;;;5052682;28;20683;-84
2021/10/05 02:58:48;;;;;;;3.95;1.10;;;13.30;99.90;;;;;;5053042;28;20289;-85
2021/10/05 03:01:14;;;;;;;1.35;0.77;;;13.20;99.90;;;;;;5052874;28;20183;-85
2021/10/05 03:03:39;;;;;;;4.85;1.20;;;13.20;99.90;;;;;;5053055;28;20170;-85
2021/10/05 03:06:05;;;;;;;4.40;1.40;;;13.10;99.90;;;;;;5052862;28;20171;-83
2021/10/05 03:08:32;;;;;;;2.72;0.98;;;13.10;99.90;;;;;;5053156;28;20167;-85
2021/10/05 03:10:58;;;;;;;2.60;1.08;;;13.30;99.90;;;;;;5053228;28;20205;-84
2021/10/05 03:13:24;;;;;;;2.83;1.20;;;13.30;99.90;;;;;;5053306;28;20171;-76
2021/10/05 03:15:50;;;;;;;4.88;1.02;;;13.20;99.90;;;;;;5052415;28;20182;-81
2021/10/05 03:18:15;;;;;;;2.35;1.00;;;13.20;99.90;;;;;;5051179;28;20584;-84
2021/10/05 03:20:43;;;;;;;1.80;0.98;;;13.30;99.90;;;;;;5053022;28;20213;-85
2021/10/05 03:23:08;;;;;;;5.32;0.98;;;13.20;99.90;;;;;;5052911;28;20217;-86
2021/10/05 03:25:34;;;;;;;2.30;1.02;;;13.20;99.90;;;;;;5052930;28;20208;-85
2021/10/05 03:27:59;;;;;;;1.63;1.13;;;13.10;99.90;;;;;;5052917;28;20246;-85
2021/10/05 03:30:25;;;;;;;1.83;0.95;;;13.20;99.90;;;;;;5052741;28;20175;-85
2021/10/05 03:32:50;;;;;;;2.00;0.82;;;13.10;99.90;;;;;;5052523;28;20246;-77
2021/10/05 03:35:16;;;;;;;3.42;0.90;;;13.00;99.90;;;;;;5052638;28;20164;-85
2021/10/05 03:37:42;;;;;;;1.73;1.20;;;13.10;99.90;;;;;;5052577;28;20175;-84
2021/10/05 03:40:08;;;;;;;4.30;0.90;;;13.10;99.90;;;;;;5052672;28;20211;-85
2021/10/05 03:42:34;;;;;;;1.58;0.80;;;13.10;99.90;;;;;;5052706;28;20167;-84
2021/10/05 03:45:00;;;;;;;2.75;1.20;;;13.20;99.90;;;;;;5052415;28;20624;-87
2021/10/05 03:47:26;;;;;;;2.10;1.10;;;13.20;99.90;;;;;;5053403;28;20168;-87
2021/10/05 03:49:51;;;;;;;5.70;1.40;;;13.30;99.90;;;;;;5052782;28;20668;-78
2021/10/05 03:52:17;;;;;;;6.70;1.42;;;13.30;99.90;;;;;;5056619;28;20170;-84
2021/10/05 03:54:42;;;;;;;1.73;1.10;;;13.40;99.90;;;;;;5056741;28;20171;-84
2021/10/05 03:57:09;;;;;;;5.60;0.90;;;13.40;99.90;;;;;;5056413;28;20166;-83
2021/10/05 03:59:34;;;;;;;1.55;1.45;;;13.30;99.90;;;;;;5056387;28;20214;-84
2021/10/05 04:02:00;;;;;;;1.73;1.10;;;13.30;99.90;;;;;;5056407;28;20163;-84
2021/10/05 04:04:25;;;;;;;3.22;1.10;;;13.30;99.90;;;;;;5056249;28;20233;-84
2021/10/05 04:06:51;;;;;;;5.80;1.50;;;13.30;99.90;;;;;;5056458;28;20249;-83
2021/10/05 04:09:17;;;;;;;0.98;0.88;;;13.30;99.90;;;;;;5056314;28;20237;-83
2021/10/05 04:11:42;;;;;;;5.93;0.98;;;13.30;99.90;;;;;;5055888;28;20171;-84
2021/10/05 04:14:08;;;;;;;1.33;0.80;;;13.20;99.90;;;;;;5056013;28;20168;-84
2021/10/05 04:16:33;;;;;;;8.23;1.08;;;13.30;99.90;;;;;;5056426;28;20171;-83
2021/10/05 04:18:59;;;;;;;1.63;0.82;;;13.30;99.90;;;;;;5055741;28;20813;-84
2021/10/05 04:21:25;;;;;;;6.70;1.08;;;13.30;99.90;;;;;;5055931;28;20178;-84
2021/10/05 04:23:50;;;;;;;2.63;1.13;;;13.40;99.90;;;;;;5055860;28;20528;-83
2021/10/05 04:26:16;;;;;;;4.68;1.83;;;13.40;99.90;;;;;;5056145;28;20159;-84
2021/10/05 04:28:42;;;;;;;1.50;1.10;;;13.40;99.90;;;;;;5055940;28;20191;-85
2021/10/05 04:31:08;;;;;;;3.92;1.25;;;13.40;99.90;;;;;;5055827;28;20167;-84
2021/10/05 04:33:35;;;;;;;8.18;1.05;;;13.30;99.90;;;;;;5055927;28;20674;-84
2021/10/05 04:36:01;;;;;;;2.55;1.30;;;13.30;99.90;;;;;;5055962;28;20186;-84
2021/10/05 04:38:27;;;;;;;1.10;0.80;;;13.40;99.90;;;;;;5055665;28;20199;-84
2021/10/05 04:40:53;;;;;;;3.80;0.95;;;13.40;99.90;;;;;;5055311;28;20276;-84
2021/10/05 04:43:19;;;;;;;2.85;1.35;;;13.40;99.90;;;;;;5055659;28;20257;-84
2021/10/05 04:45:44;;;;;;;2.42;0.88;;;13.40;99.90;;;;;;5055327;28;20195;-84
2021/10/05 04:48:10;;;;;;;1.33;0.77;;;13.30;99.90;;;;;;5054178;28;20175;-84
2021/10/05 04:50:36;;;;;;;1.98;0.90;;;13.30;99.90;;;;;;5055356;28;20203;-85
2021/10/05 04:53:02;;;;;;;7.55;0.90;;;13.20;99.90;;;;;;5055139;28;20206;-83
2021/10/05 04:55:28;;;;;;;4.45;1.02;;;13.30;99.90;;;;;;5055053;28;20220;-83
2021/10/05 04:57:54;;;;;;;2.58;1.13;;;13.30;99.90;;;;;;5055444;28;20178;-84
2021/10/05 05:00:19;;;;;;;2.53;1.00;;;13.30;99.90;;;;;;5055089;28;20210;-78
2021/10/05 05:02:45;;;;;;;7.55;1.00;;;13.30;99.90;;;;;;5054297;28;20193;-82
2021/10/05 05:05:11;;;;;;;3.22;1.00;;;13.40;99.90;;;;;;5055170;28;20216;-83
2021/10/05 05:07:36;;;;;;;6.20;1.10;;;13.20;99.90;;;;;;5054851;28;20171;-83
2021/10/05 05:10:05;;;;;;;1.40;1.00;;;13.10;99.90;;;;;;5054660;28;20655;-81
2021/10/05 05:12:31;;;;;;;1.67;0.80;;;13.00;99.90;;;;;;5055164;28;20209;-84
2021/10/05 05:14:57;;;;;;;6.70;1.50;;;13.00;99.90;;;;;;5053698;28;20292;-83
2021/10/05 05:17:23;;;;;;;4.00;1.10;;;13.10;99.90;;;;;;5055343;28;20233;-82
2021/10/05 05:19:48;;;;;;;1.98;0.93;;;13.10;99.90;;;;;;5054504;28;20595;-81
2021/10/05 05:22:14;;;;;;;2.58;0.93;;;13.30;99.90;;;;;;5053514;28;20167;-83
2021/10/05 05:24:40;;;;;;;11.40;1.60;;;13.20;99.90;;;;;;5054892;28;20171;-84
2021/10/05 05:27:05;;;;;;;3.00;1.15;;;13.20;99.90;;;;;;5054649;28;20645;-82
2021/10/05 05:29:31;;;;;;;5.68;1.45;;;13.30;99.90;;;;;;5054791;28;20187;-84
2021/10/05 05:31:58;;;;;;;2.50;1.00;;;13.20;99.90;;;;;;5054795;28;20164;-85
2021/10/05 05:34:27;;;;;;;1.05;1.02;;;13.20;99.90;;;;;;5054370;28;20199;-84
2021/10/05 05:36:53;;;;;;;5.75;1.30;;;13.10;99.90;;;;;;5054506;28;20242;-84
2021/10/05 05:39:20;;;;;;;14.30;1.88;;;13.00;99.90;;;;;;5053889;28;20256;-82
2021/10/05 05:41:45;;;;;;;5.95;1.33;;;13.00;99.90;;;;;;5054545;28;20179;-84
2021/10/05 05:44:13;;;;;;;3.17;1.25;;;13.10;99.90;;;;;;5054404;28;20515;-81
2021/10/05 05:46:39;;;;;;;3.65;1.02;;;13.20;99.90;;;;;;5053806;28;20164;-84
2021/10/05 05:49:05;;;;;;;2.55;1.00;;;13.20;99.90;;;;;;5053813;28;20718;-84
2021/10/05 05:51:30;;;;;;;4.88;1.85;;;13.30;99.90;;;;;;5054099;28;20174;-83
2021/10/05 05:53:56;;;;;;;7.43;1.92;;;13.30;99.90;;;;;;5053781;28;20201;-84
2021/10/05 05:56:21;;;;;;;2.20;1.10;;;13.30;99.90;;;;;;5053974;28;20163;-84
2021/10/05 05:58:49;;;;;;;3.28;1.50;;;13.20;99.90;;;;;;5053046;28;20202;-81
2021/10/05 06:01:15;;;;;;;10.10;1.17;;;13.10;99.90;;;;;;5053360;28;20534;-84
2021/10/05 06:03:41;;;;;;;3.05;1.20;;;13.00;99.90;;;;;;5053774;28;20168;-86
2021/10/05 06:06:07;;;;;;;10.30;1.17;;;13.10;99.90;;;;;;5053635;28;20186;-84
2021/10/05 06:08:33;;;;;;;7.95;1.40;;;13.10;99.90;;;;;;5053850;28;20191;-82
2021/10/05 06:10:58;;;;;;;5.63;1.38;;;13.00;99.90;;;;;;5054026;28;20255;-85
2021/10/05 06:13:24;;;;;;;3.05;1.17;;;12.90;99.90;;;;;;5053252;28;20244;-85
2021/10/05 06:15:50;;;;;;;3.03;1.67;;;12.90;99.90;;;;;;5052728;28;20175;-80
2021/10/05 06:18:16;;;;;;;6.90;1.10;;;12.90;99.90;;;;;;5053548;28;20170;-86
2021/10/05 06:20:42;;;;;;;9.85;1.70;;;13.00;99.90;;;;;;5053668;28;20215;-83
2021/10/05 06:23:07;;;;;;;5.40;1.73;;;13.10;99.90;;;;;;5052497;28;20163;-83
2021/10/05 06:25:39;;;;;;;2.22;1.02;;;13.10;99.90;;;;;;5053164;28;20199;-86
2021/10/05 06:28:06;;;;;;;2.50;1.02;;;13.20;99.90;;;;;;5053169;28;20168;-79
2021/10/05 06:30:31;;;;;;;2.47;1.25;;;13.20;99.90;;;;;;5053208;28;20643;-85
2021/10/05 06:32:57;;;;;;;5.07;1.10;;;13.30;99.90;;;;;;5051223;28;20200;-84
2021/10/05 06:35:26;;;;;;;6.30;1.45;;;13.30;99.90;;;;;;5052398;28;20167;-82
2021/10/05 06:37:56;;;;;;;3.38;1.25;;;13.20;99.90;;;;;;5051414;28;20163;-81
2021/10/05 06:40:24;;;;;;;4.60;1.30;;;13.30;99.90;;;;;;5050944;28;20207;-81
2021/10/05 06:42:50;;;;;;;6.20;2.20;;;13.40;99.90;;;;;;5052822;28;20697;-82
2021/10/05 06:45:16;;;;;;;1.98;1.10;;;13.40;99.90;;;;;;5051024;28;20207;-80
2021/10/05 06:47:42;;;;;;;5.55;1.17;;;13.40;99.90;;;;;;5052877;28;20171;-83
2021/10/05 06:50:09;;;;;;;3.78;1.60;;;13.50;99.90;;;;;;5052130;28;20603;-84
2021/10/05 06:52:35;;;;;;;5.85;1.25;;;13.50;99.90;;;;;;5052348;28;20228;-88
2021/10/05 06:55:01;;;;;;;4.15;0.95;;;13.60;99.90;;;;;;5052032;28;20155;-89
2021/10/05 06:57:26;;;;;;;7.38;1.40;;;13.50;99.90;;;;;;5054143;28;20530;-86
2021/10/05 06:59:52;;;;;;;6.47;1.38;;;13.40;99.90;;;;;;5053026;28;20211;-77
2021/10/05 07:02:18;;;;;;;3.40;1.10;;;13.50;99.90;;;;;;5053367;28;20156;-83
2021/10/05 07:04:43;;;;;;;3.92;1.13;;;13.50;99.90;;;;;;5053109;28;20171;-87
2021/10/05 07:07:09;;;;;;;1.60;1.05;;;13.50;99.90;;;;;;5053032;28;20167;-86
2021/10/05 07:09:35;;;;;;;4.88;1.70;;;13.60;99.90;;;;;;5052915;28;20203;-83
2021/10/05 07:12:00;;;;;;;4.15;1.20;;;13.50;99.90;;;;;;5052057;28;20686;-83
2021/10/05 07:14:26;;;;;;;3.42;1.40;;;13.70;99.90;;;;;;5051649;28;20183;-83
2021/10/05 07:16:52;;;;;;;6.75;1.35;;;13.60;99.90;;;;;;5052190;28;20156;-81
2021/10/05 07:19:18;;;;;;;1.63;0.95;;;13.80;99.90;;;;;;5052091;28;20217;-81
2021/10/05 07:21:43;;;;;;;4.10;1.05;;;14.00;99.90;;;;;;5052427;28;20170;-84
2021/10/05 07:24:09;;;;;;;4.88;1.27;;;14.10;99.90;;;;;;5051719;28;20171;-83
2021/10/05 07:26:34;;;;;;;5.22;1.20;;;14.40;99.90;;;;;;5052258;28;20641;-83
2021/10/05 07:29:00;;;;;;;3.75;1.55;;;14.60;99.90;;;;;;5052228;28;20199;-84
2021/10/05 07:31:26;;;;;;;3.45;1.42;;;14.90;99.90;;;;;;5052414;28;20174;-83
2021/10/05 07:33:51;;;;;;;7.32;0.90;;;15.00;99.90;;;;;;5052599;28;20167;-81
2021/10/05 07:36:18;;;;;;;3.35;1.20;;;15.10;99.90;;;;;;5052409;28;20630;-83
2021/10/05 07:38:44;;;;;;;3.45;1.55;;;15.20;99.90;;;;;;5052070;28;20274;-83
2021/10/05 07:41:10;;;;;;;3.30;1.13;;;15.40;99.90;;;;;;5052428;28;20273;-84
2021/10/05 07:43:36;;;;;;;1.00;0.77;;;15.40;99.90;;;;;;5052224;28;20242;-84
2021/10/05 07:46:02;;;;;;;8.13;1.55;;;15.50;99.90;;;;;;5051979;28;20233;-83
2021/10/05 07:48:29;;;;;;;2.95;1.27;;;15.60;99.90;;;;;;5052484;28;20685;-84
2021/10/05 07:50:55;;;;;;;8.75;1.35;;;15.60;99.90;;;;;;5051987;28;20191;-84
2021/10/05 07:53:21;;;;;;;4.55;1.30;;;15.40;99.90;;;;;;5052466;28;20168;-83
2021/10/05 07:55:46;;;;;;;6.68;1.00;;;15.30;99.90;;;;;;5052513;28;20258;-84
2021/10/05 07:58:12;;;;;;;6.47;1.50;;;15.40;99.90;;;;;;5052580;28;20254;-83
2021/10/05 08:00:37;;;;;;;1.17;0.80;;;15.40;99.90;;;;;;5051031;28;20651;-84
2021/10/05 08:03:04;;;;;;;3.60;1.08;;;15.60;99.90;;;;;;5051985;28;20168;-85
2021/10/05 08:05:30;;;;;;;2.72;1.10;;;15.50;99.90;;;;;;5052628;28;20163;-85
2021/10/05 08:08:01;;;;;;;5.82;0.90;;;15.30;99.90;;;;;;5052495;28;20567;-81
2021/10/05 08:10:27;;;;;;;7.13;1.10;;;15.40;99.90;;;;;;5052256;28;20604;-83
2021/10/05 08:12:53;;;;;;;1.75;1.35;;;15.40;99.90;;;;;;5052421;28;20653;-87
2021/10/05 08:15:19;;;;;;;15.88;1.52;;;15.40;99.90;;;;;;5050394;28;20183;-85
2021/10/05 08:17:44;;;;;;;1.65;0.88;;;15.40;99.90;;;;;;5051961;28;20163;-82
2021/10/05 08:20:11;;;;;;;2.85;0.88;;;15.50;99.90;;;;;;5051370;28;20207;-82
2021/10/05 08:22:38;;;;;;;4.70;1.30;;;15.60;99.90;;;;;;5051112;28;20163;-82
2021/10/05 08:25:04;;;;;;;8.52;1.20;;;15.70;99.90;;;;;;5050294;28;20202;-82
2021/10/05 08:27:30;;;;;;;2.90;1.02;;;15.80;99.90;;;;;;5050280;28;20163;-81
2021/10/05 08:29:56;;;;;;;2.40;0.98;;;15.90;99.90;;;;;;5051627;28;20610;-82
2021/10/05 08:32:22;;;;;;;4.32;1.48;;;15.90;99.90;;;;;;5051521;28;20160;-81
2021/10/05 08:34:48;;;;;;;0.93;0.80;;;15.90;99.90;;;;;;5051765;28;20179;-81
2021/10/05 08:37:14;;;;;;;6.30;1.25;;;15.90;99.90;;;;;;5052695;28;20237;-80
2021/10/05 08:39:39;;;;;;;3.97;0.80;;;15.90;99.90;;;;;;5054766;28;20211;-80
2021/10/05 08:42:06;;;;;;;4.05;0.90;;;15.90;99.90;;;;;;5054352;28;20190;-81
2021/10/05 08:44:32;;;;;;;3.28;1.00;;;16.10;99.90;;;;;;5054725;28;20167;-81
2021/10/05 08:46:58;;;;;;;2.30;0.93;;;16.30;99.90;;;;;;5054733;28;20662;-81
2021/10/05 08:49:24;;;;;;;3.03;1.05;;;16.50;99.90;;;;;;5054733;28;20187;-83
2021/10/05 08:51:52;;;;;;;4.25;1.13;;;16.50;99.90;;;;;;5054999;28;20172;-83
2021/10/05 08:54:20;;;;;;;9.68;0.98;;;16.50;99.90;;;;;;5054872;28;20171;-82
2021/10/05 08:56:45;;;;;;;4.28;0.80;;;16.60;99.90;;;;;;5055022;28;20201;-82
2021/10/05 08:59:12;;;;;;;4.75;0.80;;;16.70;99.90;;;;;;5054094;28;20199;-81
2021/10/05 09:01:39;;;;;;;4.20;0.90;;;16.90;99.90;;;;;;5054982;28;20253;-82
2021/10/05 09:04:05;;;;;;;3.50;1.08;;;16.90;99.90;;;;;;5054634;28;20166;-82
2021/10/05 09:06:32;;;;;;;11.60;1.45;;;17.20;99.90;;;;;;5054422;28;20213;-81
2021/10/05 09:09:02;;;;;;;8.45;0.90;;;17.30;99.90;;;;;;5054483;28;20294;-82
2021/10/05 09:11:38;;;;;;;5.68;0.77;;;17.60;99.90;;;;;;5054638;28;20171;-83
2021/10/05 09:14:04;;;;;;;2.97;1.08;;;17.90;99.90;;;;;;5054500;28;20167;-82
2021/10/05 09:16:34;;;;;;;3.20;1.05;;;17.80;99.90;;;;;;5054513;28;20566;-81
2021/10/05 09:19:04;;;;;;;1.00;0.65;;;17.60;99.90;;;;;;5053815;28;20203;-77
2021/10/05 09:21:38;;;;;;;2.55;0.70;;;17.50;99.90;;;;;;5054561;28;20179;-82
2021/10/05 09:24:06;;;;;;;5.25;0.90;;;17.60;99.90;;;;;;5054310;28;20249;-82
2021/10/05 09:26:41;;;;;;;4.00;1.00;;;17.70;99.90;;;;;;5054109;28;20705;-81
2021/10/05 09:29:11;;;;;;;1.73;0.93;;;17.70;99.90;;;;;;5054083;28;20201;-81
2021/10/05 09:32:08;;;;;;;5.00;0.55;;;17.50;99.90;;;;;;5054163;28;20160;-81
2021/10/05 09:34:51;;;;;;;5.07;1.52;;;17.60;99.90;;;;;;5053833;28;20637;-77
2021/10/05 09:37:17;;;;;;;5.57;1.20;;;17.50;99.90;;;;;;5053987;28;20258;-81
2021/10/05 09:39:44;;;;;;;2.63;0.90;;;17.40;99.90;;;;;;5053643;28;20281;-81
2021/10/05 09:42:10;;;;;;;8.60;1.00;;;17.30;99.90;;;;;;5053753;28;20175;-77
2021/10/05 09:44:36;;;;;;;0.75;0.60;;;17.20;99.90;;;;;;5053978;28;20648;-77
2021/10/05 09:47:02;;;;;;;3.72;0.80;;;17.30;99.90;;;;;;5053848;28;20292;-81
2021/10/05 09:49:28;;;;;;;0.95;0.60;;;17.40;99.90;;;;;;5052903;28;20187;-81
2021/10/05 09:52:01;;;;;;;3.15;0.82;;;17.20;99.90;;;;;;5053816;28;20525;-79
2021/10/05 09:54:28;;;;;;;3.90;0.90;;;17.20;99.90;;;;;;5053512;28;20171;-82
2021/10/05 09:56:54;;;;;;;1.10;0.70;;;17.20;99.90;;;;;;5053760;28;20163;-76
2021/10/05 09:59:20;;;;;;;1.35;0.70;;;17.00;99.90;;;;;;5053337;28;20793;-83
2021/10/05 10:01:46;;;;;;;4.22;1.13;;;16.90;99.90;;;;;;5053371;28;20226;-76
2021/10/05 10:04:13;;;;;;;1.23;0.70;;;16.90;99.90;;;;;;5053610;28;20166;-79
2021/10/05 10:06:40;;;;;;;7.20;1.20;;;17.00;99.90;;;;;;5053441;28;20590;-76
2021/10/05 10:09:07;;;;;;;4.13;1.40;;;16.90;99.90;;;;;;5053583;28;20183;-82
2021/10/05 10:11:34;;;;;;;1.85;0.70;;;16.90;99.90;;;;;;5053361;28;20678;-81
2021/10/05 10:14:00;;;;;;;4.00;1.20;;;16.80;99.90;;;;;;5053249;28;20258;-82
2021/10/05 10:16:26;;;;;;;3.83;1.50;;;16.70;99.90;;;;;;5053328;28;20170;-81
2021/10/05 10:19:01;;;;;;;9.80;1.08;;;16.40;99.90;;;;;;5052789;28;20226;-78
2021/10/05 10:21:38;;;;;;;4.90;0.98;;;16.20;99.90;;;;;;5052832;28;20197;-82
2021/10/05 10:24:13;;;;;;;5.38;1.00;;;16.00;99.90;;;;;;5053285;28;20171;-81
2021/10/05 10:26:44;;;;;;;2.47;1.00;;;15.90;99.90;;;;;;5053140;28;20253;-80
2021/10/05 10:29:13;;;;;;;6.55;0.68;;;15.70;99.90;;;;;;5053013;28;20187;-80
2021/10/05 10:31:40;;;;;;;2.85;1.40;;;15.60;99.90;;;;;;5053034;28;20651;-81
2021/10/05 10:34:20;;;;;;;2.15;0.90;;;15.50;99.90;;;;;;5052607;28;20171;-81
2021/10/05 10:36:46;;;;;;;1.80;0.88;;;15.60;99.90;;;;;;5052705;28;20225;-82
2021/10/05 10:39:20;;;;;;;1.60;1.00;;;15.50;99.90;;;;;;5053154;28;20238;-83
2021/10/05 10:41:52;;;;;;;3.13;1.02;;;15.50;99.90;;;;;;5053309;28;20187;-81
2021/10/05 10:44:25;;;;;;;7.93;1.27;;;15.30;99.90;;;;;;5053126;28;20167;-80
2021/10/05 10:46:51;;;;;;;2.20;0.95;;;15.40;99.90;;;;;;5053195;28;20194;-81
2021/10/05 10:49:19;;;;;;;5.32;1.42;;;15.30;99.90;;;;;;5052381;28;20191;-80
2021/10/05 10:51:47;;;;;;;2.10;1.10;;;15.30;99.90;;;;;;5052479;28;20624;-83
2021/10/05 10:54:23;;;;;;;2.33;1.10;;;15.20;99.90;;;;;;5052713;28;20227;-81
2021/10/05 10:57:06;;;;;;;4.38;1.63;;;15.20;99.90;;;;;;5053148;28;20163;-81
2021/10/05 10:59:32;;;;;;;3.10;1.15;;;15.00;99.90;;;;;;5051727;28;20251;-82
2021/10/05 11:02:04;;;;;;;1.83;1.23;;;14.90;99.90;;;;;;5052220;28;20504;-81
2021/10/05 11:04:31;;;;;;;9.63;1.73;;;14.60;99.90;;;;;;5052273;28;20218;-81
2021/10/05 11:06:58;;;;;;;1.33;1.23;;;14.50;99.90;;;;;;5052515;28;20224;-80
2021/10/05 11:09:36;;;;;;;2.60;1.17;;;14.60;99.90;;;;;;5052665;28;20202;-82
2021/10/05 11:12:07;;;;;;;2.60;1.25;;;14.60;99.90;;;;;;5052567;28;20171;-80
2021/10/05 11:14:37;;;;;;;2.25;1.08;;;14.60;99.90;;;;;;5052261;28;20249;-81
2021/10/05 11:17:05;;;;;;;2.38;1.08;;;14.40;99.90;;;;;;5052339;28;20213;-83
2021/10/05 11:19:34;;;;;;;7.20;1.60;;;14.60;99.90;;;;;;5052095;28;20289;-80
2021/10/05 11:22:03;;;;;;;2.53;1.30;;;14.70;99.90;;;;;;5052491;28;20216;-77
2021/10/05 11:24:46;;;;;;;6.05;1.38;;;14.80;99.90;;;;;;5052289;28;20163;-81
2021/10/05 11:27:14;;;;;;;3.25;0.90;;;14.80;99.90;;;;;;5051204;28;20167;-82
2021/10/05 11:29:39;;;;;;;3.30;1.20;;;14.80;99.90;;;;;;5052432;28;20198;-82
2021/10/05 11:32:06;;;;;;;3.90;1.10;;;14.80;99.90;;;;;;5052445;28;20167;-82
2021/10/05 11:34:39;;;;;;;4.35;1.10;;;14.80;99.90;;;;;;5052031;28;20163;-78
2021/10/05 11:37:07;;;;;;;4.05;1.20;;;14.80;99.90;;;;;;5052139;28;20167;-80
2021/10/05 11:39:34;;;;;;;2.53;1.05;;;14.80;99.90;;;;;;5051909;28;20191;-78
2021/10/05 11:42:10;;;;;;;1.77;1.08;;;14.80;99.90;;;;;;5050908;28;20202;-82
2021/10/05 11:44:44;;;;;;;4.28;0.95;;;14.80;99.90;;;;;;5052454;28;20240;-79
2021/10/05 11:47:15;;;;;;;2.95;0.90;;;14.70;99.90;;;;;;5052046;28;20164;-82
2021/10/05 11:49:44;;;;;;;3.00;1.30;;;14.70;99.90;;;;;;5051691;28;20183;-76
2021/10/05 11:52:13;;;;;;;2.42;1.00;;;14.70;99.90;;;;;;5052397;28;20630;-75
2021/10/05 11:54:39;;;;;;;4.90;1.00;;;14.70;99.90;;;;;;5051900;28;20170;-82
2021/10/05 11:57:17;;;;;;;4.90;0.90;;;14.80;99.90;;;;;;5050745;28;20167;-81
2021/10/05 11:59:44;;;;;;;1.08;0.80;;;14.80;99.90;;;;;;5051651;28;20233;-81
2021/10/05 12:02:16;;;;;;;4.72;1.00;;;14.70;99.90;;;;;;5051755;28;20159;-80
2021/10/05 12:04:45;;;;;;;0.80;0.77;;;14.60;99.90;;;;;;5051547;28;20671;-80
2021/10/05 12:07:14;;;;;;;1.13;0.70;;;14.60;99.90;;;;;;5051554;28;20179;-79
2021/10/05 12:09:40;;;;;;;1.42;1.00;;;14.60;99.90;;;;;;5051792;28;20195;-83
2021/10/05 12:12:14;;;;;;;0.50;0.50;;;14.70;99.90;;;;;;5054346;28;20209;-83
2021/10/05 12:14:43;;;;;;;0.52;0.52;;;14.80;99.90;;;;;;5055878;28;20209;-83
2021/10/05 12:17:17;;;;;;;2.72;0.70;;;14.90;99.90;;;;;;5055627;28;20167;-82
2021/10/05 12:19:44;;;;;;;0.82;0.70;;;14.90;99.90;;;;;;5055661;28;20280;-83
2021/10/05 12:22:10;;;;;;;0.70;0.65;;;14.70;99.90;;;;;;5055609;28;20673;-82
2021/10/05 12:24:38;;;;;;;0.75;0.57;;;14.90;99.90;;;;;;5055422;28;20535;-82
2021/10/05 12:27:04;;;;;;;1.55;0.75;;;14.80;99.90;;;;;;5055403;28;20175;-83
2021/10/05 12:29:30;;;;;;;4.53;0.70;;;14.90;99.90;;;;;;5054801;28;20191;-82
2021/10/05 12:31:59;;;;;;;1.17;0.70;;;14.70;99.90;;;;;;5055103;28;20254;-82
2021/10/05 12:34:39;;;;;;;2.05;0.73;;;14.70;99.90;;;;;;5055173;28;20289;-82
2021/10/05 12:37:07;;;;;;;3.92;1.05;;;14.80;99.90;;;;;;5055058;28;20245;-83
2021/10/05 12:39:33;;;;;;;1.08;0.85;;;14.90;99.90;;;;;;5055231;28;20245;-82
2021/10/05 12:42:01;;;;;;;0.73;0.63;;;15.20;99.90;;;;;;5054828;28;20175;-82
2021/10/05 12:44:31;;;;;;;3.83;0.50;;;15.30;99.90;;;;;;5054569;28;20256;-83
2021/10/05 12:46:59;;;;;;;0.70;0.70;;;15.50;99.90;;;;;;5055111;28;20174;-82